Marine Rouge — JG5115 — position and weather

sailwx.info

Track history (hours):
 
Tides and Currents Weather Stations Pressure Air Temp Water Temp Dewpoint Dewpoint Depression Visibility Wind Speed Wind Dir Waves Ship Positions

Marine Rouge

Last reported at 2015-Aug-03 08:33 UTC. Time now 2015-Aug-03 08:38 UTC.
Position N 35°27' E 139°39'.

Length 52 m; draft 2.8 m.

Type: Passenger vessel. MMSI: 431000518.

Date/timePositionNaut miles runAvg speedWind from/ knotsBaromVisibWave heightAir tempDewpointWater temp
2015-Aug-03 08:33N 35°27' E 139°39'1 0.5
2015-Aug-03 07:33N 35°27' E 139°39'1 0.5
2015-Aug-03 06:33N 35°27' E 139°39'0 0.1
2015-Aug-03 05:33N 35°27' E 139°39'0 0.1
2015-Aug-03 04:33N 35°27' E 139°39'3 2.9
2015-Aug-03 03:34N 35°28' E 139°42'3 2.8
2015-Aug-03 02:33N 35°27' E 139°39'0 0.0
2015-Aug-03 01:33N 35°27' E 139°39'1 0.0
2015-Aug-02 12:33N 35°27' E 139°39'2 1.7
2015-Aug-02 11:33N 35°28' E 139°41'2 1.7
2015-Aug-02 10:33N 35°27' E 139°39'1 0.5
2015-Aug-02 09:33N 35°27' E 139°39'0 0.0
2015-Aug-02 08:33N 35°27' E 139°39'3 2.8
2015-Aug-02 07:34N 35°28' E 139°42'3 2.8
2015-Aug-02 06:33N 35°27' E 139°39'0 0.1
2015-Aug-02 05:34N 35°27' E 139°39'0 0.1
2015-Aug-02 04:33N 35°27' E 139°39'1 1.1
2015-Aug-02 03:33N 35°27' E 139°40'1 1.1
2015-Aug-02 02:33N 35°27' E 139°39'0 0.0
2015-Aug-02 01:33N 35°27' E 139°39'0 0.0
2015-Aug-01 12:31N 35°27' E 139°39'1 1.0
2015-Aug-01 11:33N 35°28' E 139°39'1 0.8
2015-Aug-01 10:33N 35°27' E 139°40'1 0.9
2015-Aug-01 09:33N 35°27' E 139°39'0 0.0
2015-Aug-01 08:33N 35°27' E 139°39'3 2.7
2015-Aug-01 07:34N 35°28' E 139°42'3 2.7
2015-Aug-01 06:33N 35°27' E 139°39'0 0.1
2015-Aug-01 05:34N 35°27' E 139°39'0 0.1
2015-Aug-01 04:33N 35°27' E 139°39'1 0.5
2015-Aug-01 03:34N 35°27' E 139°39'1 0.5
2015-Aug-01 02:33N 35°27' E 139°39'0 0.0
2015-Aug-01 01:33N 35°27' E 139°39'0 0.0
2015-Aug-01 00:33N 35°27' E 139°39'1 0.0
2015-Jul-31 12:34N 35°27' E 139°39'1 1.4
2015-Jul-31 11:33N 35°28' E 139°40'1 1.5
2015-Jul-31 10:33N 35°27' E 139°39'1 0.5
2015-Jul-31 09:33N 35°27' E 139°39'3 2.7
2015-Jul-31 08:33N 35°28' E 139°42'3 2.7
2015-Jul-31 07:33N 35°27' E 139°39'1 0.5
2015-Jul-31 06:33N 35°27' E 139°39'0 0.1
2015-Jul-31 05:33N 35°27' E 139°39'0 0.1
2015-Jul-31 04:33N 35°27' E 139°39'3 2.9
2015-Jul-31 03:33N 35°28' E 139°42'3 2.9
2015-Jul-31 02:33N 35°27' E 139°39'0 0.0
2015-Jul-31 01:33N 35°27' E 139°39'0 0.0
2015-Jul-31 00:33N 35°27' E 139°39'0 0.0
2015-Jul-30 12:34N 35°27' E 139°39'1 1.1
2015-Jul-30 11:34N 35°28' E 139°40'1 1.0
2015-Jul-30 10:34N 35°27' E 139°39'1 0.5
2015-Jul-30 09:33N 35°27' E 139°39'0 0.0
2015-Jul-30 08:34N 35°27' E 139°39'1 0.5
2015-Jul-30 07:34N 35°27' E 139°39'1 0.5
2015-Jul-30 06:34N 35°27' E 139°39'0 0.1
2015-Jul-30 05:34N 35°27' E 139°39'0 0.3
2015-Jul-30 04:33N 35°27' E 139°39'0 0.4
2015-Jul-30 03:34N 35°27' E 139°39'1 0.5
2015-Jul-30 02:34N 35°27' E 139°39'0 0.0
2015-Jul-30 01:34N 35°27' E 139°39'0 0.0
2015-Jul-29 12:28N 35°27' E 139°39'1 1.2
2015-Jul-29 11:33N 35°28' E 139°40'1 1.1
2015-Jul-29 10:33N 35°27' E 139°39'1 0.6
2015-Jul-29 09:33N 35°27' E 139°39'0 0.0
2015-Jul-29 08:33N 35°27' E 139°39'1 0.5
2015-Jul-29 07:33N 35°27' E 139°39'1 0.5
2015-Jul-29 06:34N 35°27' E 139°39'0 0.1
2015-Jul-29 05:33N 35°27' E 139°39'0 0.1
2015-Jul-29 04:33N 35°27' E 139°39'1 0.5
2015-Jul-29 03:33N 35°27' E 139°39'1 0.5
2015-Jul-29 02:33N 35°27' E 139°39'0 0.0
2015-Jul-29 01:33N 35°27' E 139°39'0 0.0
2015-Jul-29 00:34N 35°27' E 139°39'0 0.0
2015-Jul-28 12:33N 35°27' E 139°39'2 1.9
2015-Jul-28 11:33N 35°28' E 139°41'2 2.1
2015-Jul-28 10:33N 35°27' E 139°39'1 0.5
2015-Jul-28 09:33N 35°27' E 139°39'0 0.1
2015-Jul-28 08:33N 35°27' E 139°39'0 0.5
2015-Jul-28 07:34N 35°27' E 139°39'1 0.5
2015-Jul-28 06:33N 35°27' E 139°39'0 0.1
2015-Jul-28 05:34N 35°27' E 139°39'0 0.1
2015-Jul-28 04:33N 35°27' E 139°39'1 0.5
2015-Jul-28 03:33N 35°27' E 139°39'1 0.5
2015-Jul-28 02:33N 35°27' E 139°39'0 0.0
2015-Jul-28 01:33N 35°27' E 139°39'1 0.0
2015-Jul-27 12:33N 35°27' E 139°39'1 0.6
2015-Jul-27 11:33N 35°28' E 139°39'1 0.6
2015-Jul-27 10:34N 35°27' E 139°39'1 0.5
2015-Jul-27 09:33N 35°27' E 139°39'0 0.0
2015-Jul-27 08:33N 35°27' E 139°39'1 0.5
2015-Jul-27 07:34N 35°27' E 139°39'1 0.5
2015-Jul-27 06:33N 35°27' E 139°39'0 0.0
2015-Jul-27 05:34N 35°27' E 139°39'0 0.0
2015-Jul-27 04:33N 35°27' E 139°39'1 0.5
2015-Jul-27 03:34N 35°27' E 139°39'1 0.5
2015-Jul-27 02:33N 35°27' E 139°39'0 0.0
2015-Jul-27 01:33N 35°27' E 139°39'0 0.0
2015-Jul-27 00:33N 35°27' E 139°39'1 0.0
2015-Jul-26 12:33N 35°27' E 139°39'2 1.7
2015-Jul-26 11:33N 35°28' E 139°40'2 1.6
2015-Jul-26 10:33N 35°27' E 139°39'1 0.5
2015-Jul-26 09:33N 35°27' E 139°39'0 0.2
2015-Jul-26 08:33N 35°27' E 139°39'0 0.5
2015-Jul-26 07:34N 35°27' E 139°39'1 0.5
2015-Jul-26 06:33N 35°27' E 139°39'0 0.1
2015-Jul-26 05:33N 35°27' E 139°39'0 0.1
2015-Jul-26 04:33N 35°27' E 139°39'1 0.5
2015-Jul-26 03:34N 35°27' E 139°39'1 0.5
2015-Jul-26 02:33N 35°27' E 139°39'0 0.0
2015-Jul-26 01:33N 35°27' E 139°39'0 0.0
2015-Jul-26 00:33N 35°27' E 139°39'0 0.0
2015-Jul-25 12:34N 35°27' E 139°39'1 0.7
2015-Jul-25 11:33N 35°28' E 139°39'1 0.8
2015-Jul-25 10:33N 35°27' E 139°40'1 1.0
2015-Jul-25 09:33N 35°27' E 139°39'0 0.4
2015-Jul-25 08:33N 35°27' E 139°39'0 0.4
2015-Jul-25 07:34N 35°27' E 139°39'1 0.5
2015-Jul-25 06:33N 35°27' E 139°39'0 0.1
2015-Jul-25 05:34N 35°27' E 139°39'0 0.3
2015-Jul-25 04:33N 35°27' E 139°39'0 0.3
2015-Jul-25 03:34N 35°27' E 139°39'1 0.6
2015-Jul-25 02:33N 35°27' E 139°39'0 0.0
2015-Jul-25 01:33N 35°27' E 139°39'0 0.0
2015-Jul-25 00:33N 35°27' E 139°39'0 0.0
2015-Jul-24 12:31N 35°27' E 139°39'1 0.7
2015-Jul-24 11:33N 35°28' E 139°39'0 0.4
2015-Jul-24 10:33N 35°27' E 139°39'1 0.6
2015-Jul-24 09:33N 35°27' E 139°39'1 0.9
2015-Jul-24 08:33N 35°28' E 139°40'  
Track history (hours):
 
Tides and Currents Weather Stations Pressure Air Temp Water Temp Dewpoint Dewpoint Depression Visibility Wind Speed Wind Dir Waves Ship Positions

Marine Rouge

Last reported at 2015-Aug-03 08:33 UTC. Time now 2015-Aug-03 08:38 UTC.
Position N 35°27' E 139°39'.

Length 52 m; draft 2.8 m.

Type: Passenger vessel. MMSI: 431000518.

Date/timePositionNaut miles runAvg speedWind from/ knotsBaromVisibWave heightAir tempDewpointWater temp
2015-Aug-03 08:33N 35°27' E 139°39'1 0.5
2015-Aug-03 07:33N 35°27' E 139°39'1 0.5
2015-Aug-03 06:33N 35°27' E 139°39'0 0.1
2015-Aug-03 05:33N 35°27' E 139°39'0 0.1
2015-Aug-03 04:33N 35°27' E 139°39'3 2.9
2015-Aug-03 03:34N 35°28' E 139°42'3 2.8
2015-Aug-03 02:33N 35°27' E 139°39'0 0.0
2015-Aug-03 01:33N 35°27' E 139°39'1 0.0
2015-Aug-02 12:33N 35°27' E 139°39'2 1.7
2015-Aug-02 11:33N 35°28' E 139°41'2 1.7
2015-Aug-02 10:33N 35°27' E 139°39'1 0.5
2015-Aug-02 09:33N 35°27' E 139°39'0 0.0
2015-Aug-02 08:33N 35°27' E 139°39'3 2.8
2015-Aug-02 07:34N 35°28' E 139°42'3 2.8
2015-Aug-02 06:33N 35°27' E 139°39'0 0.1
2015-Aug-02 05:34N 35°27' E 139°39'0 0.1
2015-Aug-02 04:33N 35°27' E 139°39'1 1.1
2015-Aug-02 03:33N 35°27' E 139°40'1 1.1
2015-Aug-02 02:33N 35°27' E 139°39'0 0.0
2015-Aug-02 01:33N 35°27' E 139°39'0 0.0
2015-Aug-01 12:31N 35°27' E 139°39'1 1.0
2015-Aug-01 11:33N 35°28' E 139°39'1 0.8
2015-Aug-01 10:33N 35°27' E 139°40'1 0.9
2015-Aug-01 09:33N 35°27' E 139°39'0 0.0
2015-Aug-01 08:33N 35°27' E 139°39'3 2.7
2015-Aug-01 07:34N 35°28' E 139°42'3 2.7
2015-Aug-01 06:33N 35°27' E 139°39'0 0.1
2015-Aug-01 05:34N 35°27' E 139°39'0 0.1
2015-Aug-01 04:33N 35°27' E 139°39'1 0.5
2015-Aug-01 03:34N 35°27' E 139°39'1 0.5
2015-Aug-01 02:33N 35°27' E 139°39'0 0.0
2015-Aug-01 01:33N 35°27' E 139°39'0 0.0
2015-Aug-01 00:33N 35°27' E 139°39'1 0.0
2015-Jul-31 12:34N 35°27' E 139°39'1 1.4
2015-Jul-31 11:33N 35°28' E 139°40'1 1.5
2015-Jul-31 10:33N 35°27' E 139°39'1 0.5
2015-Jul-31 09:33N 35°27' E 139°39'3 2.7
2015-Jul-31 08:33N 35°28' E 139°42'3 2.7
2015-Jul-31 07:33N 35°27' E 139°39'1 0.5
2015-Jul-31 06:33N 35°27' E 139°39'0 0.1
2015-Jul-31 05:33N 35°27' E 139°39'0 0.1
2015-Jul-31 04:33N 35°27' E 139°39'3 2.9
2015-Jul-31 03:33N 35°28' E 139°42'3 2.9
2015-Jul-31 02:33N 35°27' E 139°39'0 0.0
2015-Jul-31 01:33N 35°27' E 139°39'0 0.0
2015-Jul-31 00:33N 35°27' E 139°39'0 0.0
2015-Jul-30 12:34N 35°27' E 139°39'1 1.1
2015-Jul-30 11:34N 35°28' E 139°40'1 1.0
2015-Jul-30 10:34N 35°27' E 139°39'1 0.5
2015-Jul-30 09:33N 35°27' E 139°39'0 0.0
2015-Jul-30 08:34N 35°27' E 139°39'1 0.5
2015-Jul-30 07:34N 35°27' E 139°39'1 0.5
2015-Jul-30 06:34N 35°27' E 139°39'0 0.1
2015-Jul-30 05:34N 35°27' E 139°39'0 0.3
2015-Jul-30 04:33N 35°27' E 139°39'0 0.4
2015-Jul-30 03:34N 35°27' E 139°39'1 0.5
2015-Jul-30 02:34N 35°27' E 139°39'0 0.0
2015-Jul-30 01:34N 35°27' E 139°39'0 0.0
2015-Jul-29 12:28N 35°27' E 139°39'1 1.2
2015-Jul-29 11:33N 35°28' E 139°40'1 1.1
2015-Jul-29 10:33N 35°27' E 139°39'1 0.6
2015-Jul-29 09:33N 35°27' E 139°39'0 0.0
2015-Jul-29 08:33N 35°27' E 139°39'1 0.5
2015-Jul-29 07:33N 35°27' E 139°39'1 0.5
2015-Jul-29 06:34N 35°27' E 139°39'0 0.1
2015-Jul-29 05:33N 35°27' E 139°39'0 0.1
2015-Jul-29 04:33N 35°27' E 139°39'1 0.5
2015-Jul-29 03:33N 35°27' E 139°39'1 0.5
2015-Jul-29 02:33N 35°27' E 139°39'0 0.0
2015-Jul-29 01:33N 35°27' E 139°39'0 0.0
2015-Jul-29 00:34N 35°27' E 139°39'0 0.0
2015-Jul-28 12:33N 35°27' E 139°39'2 1.9
2015-Jul-28 11:33N 35°28' E 139°41'2 2.1
2015-Jul-28 10:33N 35°27' E 139°39'1 0.5
2015-Jul-28 09:33N 35°27' E 139°39'0 0.1
2015-Jul-28 08:33N 35°27' E 139°39'0 0.5
2015-Jul-28 07:34N 35°27' E 139°39'1 0.5
2015-Jul-28 06:33N 35°27' E 139°39'0 0.1
2015-Jul-28 05:34N 35°27' E 139°39'0 0.1
2015-Jul-28 04:33N 35°27' E 139°39'1 0.5
2015-Jul-28 03:33N 35°27' E 139°39'1 0.5
2015-Jul-28 02:33N 35°27' E 139°39'0 0.0
2015-Jul-28 01:33N 35°27' E 139°39'1 0.0
2015-Jul-27 12:33N 35°27' E 139°39'1 0.6
2015-Jul-27 11:33N 35°28' E 139°39'1 0.6
2015-Jul-27 10:34N 35°27' E 139°39'1 0.5
2015-Jul-27 09:33N 35°27' E 139°39'0 0.0
2015-Jul-27 08:33N 35°27' E 139°39'1 0.5
2015-Jul-27 07:34N 35°27' E 139°39'1 0.5
2015-Jul-27 06:33N 35°27' E 139°39'0 0.0
2015-Jul-27 05:34N 35°27' E 139°39'0 0.0
2015-Jul-27 04:33N 35°27' E 139°39'1 0.5
2015-Jul-27 03:34N 35°27' E 139°39'1 0.5
2015-Jul-27 02:33N 35°27' E 139°39'0 0.0
2015-Jul-27 01:33N 35°27' E 139°39'0 0.0
2015-Jul-27 00:33N 35°27' E 139°39'1 0.0
2015-Jul-26 12:33N 35°27' E 139°39'2 1.7
2015-Jul-26 11:33N 35°28' E 139°40'2 1.6
2015-Jul-26 10:33N 35°27' E 139°39'1 0.5
2015-Jul-26 09:33N 35°27' E 139°39'0 0.2
2015-Jul-26 08:33N 35°27' E 139°39'0 0.5
2015-Jul-26 07:34N 35°27' E 139°39'1 0.5
2015-Jul-26 06:33N 35°27' E 139°39'0 0.1
2015-Jul-26 05:33N 35°27' E 139°39'0 0.1
2015-Jul-26 04:33N 35°27' E 139°39'1 0.5
2015-Jul-26 03:34N 35°27' E 139°39'1 0.5
2015-Jul-26 02:33N 35°27' E 139°39'0 0.0
2015-Jul-26 01:33N 35°27' E 139°39'0 0.0
2015-Jul-26 00:33N 35°27' E 139°39'0 0.0
2015-Jul-25 12:34N 35°27' E 139°39'1 0.7
2015-Jul-25 11:33N 35°28' E 139°39'1 0.8
2015-Jul-25 10:33N 35°27' E 139°40'1 1.0
2015-Jul-25 09:33N 35°27' E 139°39'0 0.4
2015-Jul-25 08:33N 35°27' E 139°39'0 0.4
2015-Jul-25 07:34N 35°27' E 139°39'1 0.5
2015-Jul-25 06:33N 35°27' E 139°39'0 0.1
2015-Jul-25 05:34N 35°27' E 139°39'0 0.3
2015-Jul-25 04:33N 35°27' E 139°39'0 0.3
2015-Jul-25 03:34N 35°27' E 139°39'1 0.6
2015-Jul-25 02:33N 35°27' E 139°39'0 0.0
2015-Jul-25 01:33N 35°27' E 139°39'0 0.0
2015-Jul-25 00:33N 35°27' E 139°39'0 0.0
2015-Jul-24 12:31N 35°27' E 139°39'1 0.7
2015-Jul-24 11:33N 35°28' E 139°39'0 0.4
2015-Jul-24 10:33N 35°27' E 139°39'1 0.6
2015-Jul-24 09:33N 35°27' E 139°39'1 0.9
2015-Jul-24 08:33N 35°28' E 139°40'  

Dump ship's entire track history